Time;durP1;ratioP1;P1;durP2;ratioP2;P2;SDS_P1;SDS_P2;PMS_P1;PMS_P2;Temp;Humidity;BMP_temperature;BMP_pressure;BME280_temperature;BME280_humidity;BME280_pressure;Samples;Min_cycle;Max_cycle;Signal;HPM_P1;HPM_P2
2024/01/10 00:02:17;;;;;;;26.23;20.83;;;0.00;99.90;;;;;;5039386;28;20124;-81
2024/01/10 00:04:43;;;;;;;29.63;21.63;;;2.10;99.90;;;;;;5031850;28;20123;-81
2024/01/10 00:07:09;;;;;;;28.90;21.83;;;0.10;99.90;;;;;;5038740;28;20086;-84
2024/01/10 00:09:35;;;;;;;30.95;22.25;;;0.00;99.90;;;;;;5037685;28;20246;-83
2024/01/10 00:12:00;;;;;;;30.05;23.10;;;-0.10;99.90;;;;;;5013488;28;20052;-82
2024/01/10 00:14:26;;;;;;;31.60;23.17;;;0.00;99.90;;;;;;5031414;28;20178;-82
2024/01/10 00:16:52;;;;;;;30.98;22.08;;;1.30;99.90;;;;;;5016066;28;20060;-81
2024/01/10 00:19:18;;;;;;;28.50;21.85;;;0.10;99.90;;;;;;5014144;28;20045;-83
2024/01/10 00:21:43;;;;;;;29.00;22.80;;;0.00;99.90;;;;;;5014662;28;20054;-81
2024/01/10 00:24:09;;;;;;;27.90;20.85;;;0.00;99.90;;;;;;5031801;28;20045;-83
2024/01/10 00:26:35;;;;;;;29.00;22.52;;;0.40;99.90;;;;;;5015921;28;20037;-83
2024/01/10 00:29:00;;;;;;;29.25;22.35;;;0.70;99.90;;;;;;5031630;28;20111;-85
2024/01/10 00:31:26;;;;;;;30.00;22.13;;;1.10;99.90;;;;;;5053675;28;20064;-86
2024/01/10 00:33:52;;;;;;;30.05;23.00;;;1.20;99.90;;;;;;5040631;28;20037;-82
2024/01/10 00:36:18;;;;;;;29.92;22.45;;;0.10;99.90;;;;;;5038660;28;20091;-85
2024/01/10 00:38:43;;;;;;;29.20;21.75;;;-0.20;99.90;;;;;;5053477;28;20090;-82
2024/01/10 00:41:09;;;;;;;30.55;23.08;;;1.80;99.90;;;;;;5029502;28;20041;-82
2024/01/10 00:43:35;;;;;;;28.02;22.20;;;1.00;99.90;;;;;;5042872;28;20060;-84
2024/01/10 00:46:01;;;;;;;27.13;21.33;;;1.40;99.90;;;;;;5014291;28;20037;-85
2024/01/10 00:48:26;;;;;;;29.00;21.05;;;-0.10;99.90;;;;;;5040518;28;20033;-85
2024/01/10 00:50:52;;;;;;;28.90;22.10;;;1.50;99.90;;;;;;5049393;28;20029;-84
2024/01/10 00:53:18;;;;;;;28.33;20.75;;;1.30;99.90;;;;;;5016576;28;20069;-82
2024/01/10 00:55:43;;;;;;;28.25;20.73;;;0.10;99.90;;;;;;5044036;28;20837;-83
2024/01/10 00:58:09;;;;;;;25.63;19.55;;;1.10;99.90;;;;;;5052242;28;20041;-80
2024/01/10 01:00:35;;;;;;;27.10;21.33;;;-0.20;99.90;;;;;;5033942;28;20071;-80
2024/01/10 01:03:01;;;;;;;26.45;20.88;;;-0.10;99.90;;;;;;5017114;28;20076;-82
2024/01/10 01:05:27;;;;;;;26.48;20.30;;;-0.10;99.90;;;;;;5018332;28;20053;-82
2024/01/10 01:07:56;;;;;;;27.98;20.73;;;0.70;87.30;;;;;;5043482;28;20124;-81
2024/01/10 01:10:22;;;;;;;28.67;21.55;;;-0.30;62.70;;;;;;5032568;28;20447;-81
2024/01/10 01:12:47;;;;;;;31.92;21.52;;;0.90;54.10;;;;;;5000691;28;20037;-82
2024/01/10 01:15:13;;;;;;;30.25;21.88;;;1.70;62.90;;;;;;5042330;28;20056;-83
2024/01/10 01:17:39;;;;;;;32.15;23.48;;;-0.30;75.20;;;;;;5017762;28;20124;-82
2024/01/10 01:20:05;;;;;;;30.92;23.58;;;1.20;99.90;;;;;;5051977;28;20078;-81
2024/01/10 01:22:31;;;;;;;32.58;24.05;;;-0.40;99.90;;;;;;5001299;28;20072;-82
2024/01/10 01:24:57;;;;;;;31.15;22.45;;;1.50;99.90;;;;;;5059231;28;20065;-81
2024/01/10 01:27:24;;;;;;;31.85;22.83;;;-0.30;99.90;;;;;;5059644;28;20033;-85
2024/01/10 01:29:50;;;;;;;30.90;22.77;;;-0.40;99.90;;;;;;5034926;28;20473;-83
2024/01/10 01:32:15;;;;;;;33.50;23.55;;;-0.30;99.90;;;;;;5049456;28;20087;-81
2024/01/10 01:34:41;;;;;;;34.60;23.25;;;-0.10;99.90;;;;;;5001430;28;20397;-84
2024/01/10 01:37:07;;;;;;;31.83;23.17;;;0.90;99.90;;;;;;5034465;28;20047;-84
2024/01/10 01:39:33;;;;;;;30.45;22.40;;;1.60;99.90;;;;;;5033902;28;20072;-83
2024/01/10 01:41:58;;;;;;;31.42;22.85;;;1.50;99.90;;;;;;5031057;28;20074;-85
2024/01/10 01:44:24;;;;;;;32.15;23.02;;;-0.10;99.90;;;;;;5034061;28;20354;-84
2024/01/10 01:46:50;;;;;;;29.42;22.33;;;1.90;99.90;;;;;;5050792;28;20051;-85
2024/01/10 01:49:16;;;;;;;33.38;21.98;;;1.70;99.90;;;;;;5034624;28;20075;-85
2024/01/10 01:51:42;;;;;;;29.95;21.50;;;-0.30;99.90;;;;;;5032584;28;20036;-84
2024/01/10 01:54:08;;;;;;;30.20;21.42;;;1.00;99.90;;;;;;5036858;28;20395;-86
2024/01/10 01:56:36;;;;;;;29.10;20.48;;;1.30;99.90;;;;;;5033245;28;20040;-84
2024/01/10 01:59:02;;;;;;;29.92;21.75;;;1.40;99.90;;;;;;5059173;28;20042;-85
2024/01/10 02:01:28;;;;;;;30.02;21.23;;;1.50;99.90;;;;;;5048311;28;20100;-86
2024/01/10 02:03:55;;;;;;;28.50;21.23;;;1.10;99.90;;;;;;5032662;28;20068;-85
2024/01/10 02:06:20;;;;;;;29.13;21.23;;;1.40;99.90;;;;;;5049381;28;20067;-85
2024/01/10 02:08:46;;;;;;;28.80;21.27;;;-0.40;99.90;;;;;;5015971;28;20037;-85
2024/01/10 02:11:12;;;;;;;29.88;21.98;;;1.60;99.90;;;;;;5060831;28;20444;-83
2024/01/10 02:13:38;;;;;;;29.00;21.80;;;0.70;99.90;;;;;;5032949;28;20051;-84
2024/01/10 02:16:04;;;;;;;30.05;20.92;;;1.50;99.90;;;;;;5049467;28;20037;-84
2024/01/10 02:18:31;;;;;;;29.17;20.98;;;-0.70;99.90;;;;;;5057355;28;20037;-85
2024/01/10 02:20:57;;;;;;;28.80;21.73;;;0.40;99.90;;;;;;5060879;28;20385;-85
2024/01/10 02:23:23;;;;;;;30.23;21.63;;;-0.90;99.90;;;;;;5031023;28;20037;-83
2024/01/10 02:25:49;;;;;;;27.77;20.15;;;-0.50;99.90;;;;;;5058004;28;20039;-83
2024/01/10 02:28:15;;;;;;;31.35;21.17;;;-2.50;99.90;;;;;;5049758;28;20115;-84
2024/01/10 02:30:40;;;;;;;27.98;19.67;;;1.50;99.90;;;;;;5056048;28;20450;-85
2024/01/10 02:33:06;;;;;;;28.35;20.85;;;-0.60;99.90;;;;;;5030631;28;20044;-84
2024/01/10 02:35:32;;;;;;;27.00;20.40;;;0.50;99.90;;;;;;5033589;28;20043;-85
2024/01/10 02:37:59;;;;;;;26.88;21.30;;;-1.50;99.90;;;;;;5017761;28;20075;-85
2024/01/10 02:40:25;;;;;;;28.60;20.20;;;-0.60;99.90;;;;;;5000096;28;20029;-84
2024/01/10 02:42:51;;;;;;;30.90;21.25;;;0.70;99.90;;;;;;5015150;28;20044;-85
2024/01/10 02:45:17;;;;;;;25.98;19.98;;;0.00;99.90;;;;;;5030688;28;20057;-83
2024/01/10 02:47:44;;;;;;;27.25;20.33;;;-0.60;99.90;;;;;;5050137;28;20037;-88
2024/01/10 02:50:10;;;;;;;27.63;20.77;;;1.30;99.90;;;;;;5058060;28;20432;-83
2024/01/10 02:52:36;;;;;;;30.48;21.75;;;-0.40;99.90;;;;;;5046337;28;20086;-84
2024/01/10 02:55:01;;;;;;;29.25;20.73;;;0.30;99.90;;;;;;5048053;28;20039;-85
2024/01/10 02:57:27;;;;;;;29.45;20.73;;;-0.40;99.90;;;;;;5033157;28;20090;-82
2024/01/10 02:59:53;;;;;;;30.10;21.73;;;-0.50;99.90;;;;;;5049551;28;20045;-83
2024/01/10 03:02:19;;;;;;;29.83;20.83;;;-0.50;99.90;;;;;;5049446;28;20037;-85
2024/01/10 03:04:44;;;;;;;29.13;21.20;;;0.80;99.90;;;;;;5040381;28;20139;-83
2024/01/10 03:07:10;;;;;;;28.98;20.85;;;-0.40;99.90;;;;;;5032694;28;20073;-83
2024/01/10 03:09:36;;;;;;;29.50;20.77;;;-0.30;99.90;;;;;;5039724;28;20167;-84
2024/01/10 03:12:02;;;;;;;30.45;21.70;;;0.70;99.90;;;;;;5050262;28;20490;-84
2024/01/10 03:14:28;;;;;;;27.65;21.55;;;-0.20;99.90;;;;;;5016010;28;20500;-84
2024/01/10 03:16:54;;;;;;;29.02;21.13;;;-0.30;99.90;;;;;;5037793;28;20040;-84
2024/01/10 03:19:20;;;;;;;28.52;21.45;;;-0.40;99.90;;;;;;5040178;28;20052;-84
2024/01/10 03:21:45;;;;;;;28.75;21.55;;;-0.10;99.90;;;;;;5033010;28;20048;-87
2024/01/10 03:24:11;;;;;;;30.95;21.83;;;1.10;99.90;;;;;;5040065;28;20037;-86
2024/01/10 03:26:37;;;;;;;28.98;22.30;;;-0.30;99.90;;;;;;5057760;28;20671;-82
2024/01/10 03:29:02;;;;;;;26.80;20.48;;;-0.30;99.90;;;;;;5015853;28;20354;-83
2024/01/10 03:31:30;;;;;;;27.08;20.75;;;-0.30;99.90;;;;;;5034035;28;20037;-83
2024/01/10 03:33:59;;;;;;;28.30;21.67;;;-0.20;99.90;;;;;;5061503;28;20044;-84
2024/01/10 03:36:25;;;;;;;26.83;20.60;;;-0.40;99.90;;;;;;5042282;28;20591;-82
2024/01/10 03:38:51;;;;;;;27.88;20.45;;;1.10;99.90;;;;;;5017223;28;20041;-85
2024/01/10 03:41:18;;;;;;;27.08;20.45;;;-0.60;99.90;;;;;;5033674;28;20045;-84
2024/01/10 03:43:44;;;;;;;30.42;21.10;;;-0.20;99.90;;;;;;5031539;28;20052;-83
2024/01/10 03:46:10;;;;;;;27.95;20.67;;;1.20;99.90;;;;;;5045994;28;20045;-83
2024/01/10 03:48:49;;;;;;;25.65;19.50;;;-0.10;99.90;;;;;;5070313;28;20033;-85
2024/01/10 03:51:17;;;;;;;24.60;19.10;;;0.10;99.90;;;;;;5052353;28;20123;-87
2024/01/10 03:53:43;;;;;;;24.27;17.58;;;-1.50;99.90;;;;;;5032960;28;20071;-88
2024/01/10 03:56:10;;;;;;;25.80;18.85;;;0.90;99.90;;;;;;5031400;28;20048;-84
2024/01/10 03:58:35;;;;;;;23.38;17.40;;;-0.10;99.90;;;;;;5048697;28;20036;-85
2024/01/10 04:01:06;;;;;;;22.60;17.38;;;1.10;99.90;;;;;;5042383;28;20469;-85
2024/01/10 04:03:32;;;;;;;22.08;17.00;;;-0.30;99.90;;;;;;5030205;28;20033;-83
2024/01/10 04:05:57;;;;;;;24.23;18.13;;;0.90;99.90;;;;;;4998249;28;20049;-87
2024/01/10 04:08:23;;;;;;;23.40;18.13;;;-0.40;99.90;;;;;;5015297;28;20081;-85
2024/01/10 04:10:49;;;;;;;23.08;18.63;;;-0.20;99.90;;;;;;5038486;28;20487;-87
2024/01/10 04:13:15;;;;;;;24.45;18.35;;;-0.40;99.90;;;;;;5016132;28;20040;-85
2024/01/10 04:15:40;;;;;;;23.75;17.95;;;0.80;99.90;;;;;;4998512;28;20041;-85
2024/01/10 04:18:06;;;;;;;25.70;19.55;;;0.30;99.90;;;;;;5015886;28;20041;-85
2024/01/10 04:20:32;;;;;;;24.02;18.10;;;-0.50;99.90;;;;;;5031871;28;20561;-84
2024/01/10 04:22:57;;;;;;;26.50;19.60;;;-0.30;99.90;;;;;;5038081;28;20036;-84
2024/01/10 04:25:23;;;;;;;28.75;21.05;;;-0.20;99.90;;;;;;5031373;28;20033;-87
2024/01/10 04:27:52;;;;;;;26.20;20.05;;;-0.30;99.90;;;;;;5044831;28;20098;-84
2024/01/10 04:30:18;;;;;;;24.98;19.48;;;0.80;99.90;;;;;;5046479;28;20529;-84
2024/01/10 04:32:43;;;;;;;25.17;19.35;;;1.60;99.90;;;;;;5018571;28;20037;-85
2024/01/10 04:35:09;;;;;;;26.63;20.48;;;-0.40;1.00;;;;;;5051776;28;20479;-86
2024/01/10 04:37:35;;;;;;;27.20;21.10;;;1.10;99.90;;;;;;5017010;28;20037;-86
2024/01/10 04:40:01;;;;;;;27.98;20.90;;;1.30;99.90;;;;;;5052676;28;20500;-85
2024/01/10 04:42:27;;;;;;;29.90;21.70;;;1.20;99.90;;;;;;5051051;28;20033;-85
2024/01/10 04:44:52;;;;;;;27.83;21.35;;;1.50;99.90;;;;;;5036666;28;20043;-85
2024/01/10 04:47:18;;;;;;;27.92;22.58;;;0.80;1.00;;;;;;5019534;28;20033;-86
2024/01/10 04:49:44;;;;;;;29.60;22.35;;;-0.30;1.00;;;;;;5060594;28;20542;-87
2024/01/10 04:52:10;;;;;;;32.13;22.65;;;-0.10;99.90;;;;;;5036524;28;20388;-87
2024/01/10 04:54:36;;;;;;;28.50;21.95;;;-0.30;1.00;;;;;;5065125;28;20119;-85
2024/01/10 04:57:01;;;;;;;28.92;22.98;;;1.40;1.00;;;;;;5051686;28;20428;-85
2024/01/10 04:59:27;;;;;;;31.33;23.38;;;-0.10;99.90;;;;;;5035725;28;20120;-83
2024/01/10 05:01:53;;;;;;;32.65;24.70;;;0.90;1.00;;;;;;5052598;28;20388;-85
2024/01/10 05:04:18;;;;;;;35.50;25.30;;;-0.10;1.00;;;;;;5050079;28;20037;-85
2024/01/10 05:06:46;;;;;;;30.35;23.73;;;1.80;1.00;;;;;;5015288;28;20052;-86
2024/01/10 05:09:12;;;;;;;31.15;23.30;;;-0.30;1.00;;;;;;5064754;28;20094;-85
2024/01/10 05:11:38;;;;;;;28.88;21.55;;;1.60;1.00;;;;;;5018502;28;20059;-82
2024/01/10 05:14:04;;;;;;;29.48;22.40;;;-0.20;1.00;;;;;;5045628;28;20052;-85
2024/01/10 05:16:29;;;;;;;28.15;21.30;;;1.40;99.90;;;;;;5057743;28;20499;-86
2024/01/10 05:18:55;;;;;;;29.45;22.25;;;1.60;1.00;;;;;;5051497;28;20037;-84
2024/01/10 05:21:21;;;;;;;27.83;22.00;;;1.70;99.90;;;;;;5059258;28;20128;-82
2024/01/10 05:23:47;;;;;;;29.30;22.85;;;0.80;99.90;;;;;;5057076;28;20033;-82
2024/01/10 05:26:20;;;;;;;28.48;21.88;;;1.60;99.90;;;;;;5034633;28;20708;-85
2024/01/10 05:28:46;;;;;;;33.97;23.42;;;-0.10;99.90;;;;;;5061766;28;20029;-83
2024/01/10 05:31:12;;;;;;;30.05;23.08;;;-0.20;1.00;;;;;;5033616;28;20047;-84
2024/01/10 05:33:37;;;;;;;30.10;22.60;;;0.80;1.00;;;;;;5042523;28;20098;-85
2024/01/10 05:36:03;;;;;;;27.88;23.02;;;-0.10;1.00;;;;;;5034202;28;20040;-84
2024/01/10 05:38:29;;;;;;;32.65;23.20;;;-0.20;1.00;;;;;;5034107;28;20080;-85
2024/01/10 05:40:55;;;;;;;31.00;23.13;;;-0.30;1.00;;;;;;5033069;28;20041;-82
2024/01/10 05:43:21;;;;;;;30.92;22.95;;;0.90;1.00;;;;;;5057633;28;20121;-83
2024/01/10 05:45:47;;;;;;;28.83;22.45;;;1.60;1.00;;;;;;5033614;28;20041;-84
2024/01/10 05:48:19;;;;;;;29.58;22.10;;;-0.30;1.00;;;;;;5033196;28;20044;-84
2024/01/10 05:50:45;;;;;;;28.92;22.60;;;1.20;1.00;;;;;;5033064;28;20071;-85
2024/01/10 05:53:12;;;;;;;29.50;23.08;;;0.10;1.00;;;;;;5034351;28;20052;-84
2024/01/10 05:55:38;;;;;;;28.20;21.77;;;1.60;1.00;;;;;;5042694;28;20107;-84
2024/01/10 05:58:05;;;;;;;31.20;22.23;;;0.80;1.00;;;;;;5039657;28;20164;-84
2024/01/10 06:00:31;;;;;;;27.88;21.40;;;-0.30;1.00;;;;;;5032793;28;20136;-81
2024/01/10 06:02:57;;;;;;;28.85;22.48;;;1.40;1.00;;;;;;5047831;28;20045;-82
2024/01/10 06:05:24;;;;;;;28.73;22.05;;;0.40;1.00;;;;;;5033783;28;20056;-84
2024/01/10 06:07:50;;;;;;;28.33;21.27;;;-0.30;1.00;;;;;;5033460;28;20321;-84
2024/01/10 06:10:17;;;;;;;28.15;21.98;;;-0.30;1.00;;;;;;5033597;28;20045;-84
2024/01/10 06:12:42;;;;;;;28.50;21.90;;;-0.40;1.00;;;;;;5015116;28;20659;-84
2024/01/10 06:15:08;;;;;;;31.08;22.58;;;-0.50;99.90;;;;;;5049488;28;20071;-84
2024/01/10 06:17:34;;;;;;;33.40;23.08;;;-0.50;99.90;;;;;;5033209;28;20502;-82
2024/01/10 06:20:00;;;;;;;31.42;23.52;;;-0.10;99.90;;;;;;5017397;28;20048;-84
2024/01/10 06:22:26;;;;;;;30.58;23.52;;;-0.50;99.90;;;;;;5015145;28;20075;-85
2024/01/10 06:24:52;;;;;;;29.83;22.00;;;-0.30;99.90;;;;;;5033963;28;20090;-84
2024/01/10 06:27:18;;;;;;;29.20;22.60;;;-0.50;99.90;;;;;;5017040;28;20456;-86
2024/01/10 06:29:44;;;;;;;28.70;21.65;;;-0.20;99.90;;;;;;5039433;28;21429;-86
2024/01/10 06:32:11;;;;;;;28.10;19.88;;;1.70;99.90;;;;;;5036354;28;20059;-85
2024/01/10 06:34:37;;;;;;;29.17;20.73;;;1.00;99.90;;;;;;5056852;28;20047;-85
2024/01/10 06:37:03;;;;;;;27.02;20.63;;;-0.20;86.20;;;;;;5074898;28;20036;-86
2024/01/10 06:39:29;;;;;;;26.95;20.13;;;-0.40;32.30;;;;;;5032588;28;20052;-83
2024/01/10 06:41:55;;;;;;;28.95;21.38;;;0.10;28.50;;;;;;5032360;28;20033;-86
2024/01/10 06:44:20;;;;;;;28.45;20.63;;;0.10;18.00;;;;;;5032174;28;20115;-85
2024/01/10 06:46:46;;;;;;;29.73;21.60;;;-0.50;1.00;;;;;;5033441;28;20097;-84
2024/01/10 06:49:12;;;;;;;33.75;23.58;;;-0.40;1.00;;;;;;5032856;28;20041;-84
2024/01/10 06:51:39;;;;;;;31.65;22.50;;;1.30;1.00;;;;;;5031054;28;20109;-85
2024/01/10 06:54:05;;;;;;;32.35;24.42;;;-0.60;1.00;;;;;;5049261;28;20033;-85
2024/01/10 06:56:32;;;;;;;34.05;23.25;;;1.50;1.00;;;;;;5034124;28;20090;-84
2024/01/10 06:59:00;;;;;;;31.60;22.38;;;-0.60;1.00;;;;;;5036728;28;20048;-84
2024/01/10 07:01:26;;;;;;;30.83;22.10;;;-0.40;1.00;;;;;;5055254;28;20552;-85
2024/01/10 07:03:56;;;;;;;32.60;22.40;;;0.20;1.00;;;;;;5047712;28;20100;-82
2024/01/10 07:06:23;;;;;;;32.50;21.05;;;1.20;1.00;;;;;;5016147;28;20045;-85
2024/01/10 07:08:50;;;;;;;34.70;23.05;;;1.30;1.00;;;;;;5052136;28;20044;-83
2024/01/10 07:11:16;;;;;;;34.53;23.42;;;-0.60;1.00;;;;;;5058506;28;20421;-83
2024/01/10 07:13:42;;;;;;;32.55;21.38;;;1.20;1.00;;;;;;5047422;28;20037;-85
2024/01/10 07:16:09;;;;;;;34.08;22.13;;;-0.60;1.00;;;;;;5049586;28;20043;-83
2024/01/10 07:18:35;;;;;;;33.72;21.67;;;-0.60;99.90;;;;;;5032716;28;20373;-83
2024/01/10 07:21:01;;;;;;;35.08;22.55;;;-0.70;1.00;;;;;;5032225;28;20116;-82
2024/01/10 07:23:27;;;;;;;36.25;22.85;;;-0.50;1.00;;;;;;5032979;28;20127;-85
2024/01/10 07:25:52;;;;;;;37.10;22.08;;;0.30;99.90;;;;;;5057643;28;20477;-84
2024/01/10 07:28:19;;;;;;;34.08;21.13;;;-0.70;1.00;;;;;;5032021;28;20083;-82
2024/01/10 07:30:45;;;;;;;34.50;21.33;;;0.70;1.00;;;;;;5032099;28;20028;-83
2024/01/10 07:33:11;;;;;;;35.47;20.85;;;-0.70;1.00;;;;;;5036270;28;20057;-82
2024/01/10 07:35:38;;;;;;;35.03;19.98;;;1.00;1.00;;;;;;5035179;28;20124;-80
2024/01/10 07:38:07;;;;;;;35.55;21.05;;;-0.70;1.00;;;;;;5043331;28;20053;-80
2024/01/10 07:40:33;;;;;;;31.48;18.67;;;0.80;99.90;;;;;;5054830;28;20049;-82
2024/01/10 07:42:59;;;;;;;33.88;20.38;;;0.50;1.00;;;;;;5057958;28;20045;-83
2024/01/10 07:45:25;;;;;;;36.08;19.88;;;-0.70;1.00;;;;;;5041147;28;20043;-80
2024/01/10 07:47:51;;;;;;;34.15;19.70;;;-0.60;99.90;;;;;;5053695;28;20036;-76
2024/01/10 07:50:17;;;;;;;36.92;21.48;;;-0.50;99.90;;;;;;5069015;28;20055;-82
2024/01/10 07:52:43;;;;;;;35.78;20.75;;;-0.70;1.00;;;;;;5034765;28;20103;-80
2024/01/10 07:55:09;;;;;;;33.58;19.80;;;-0.60;1.00;;;;;;5060545;28;20056;-81
2024/01/10 07:57:36;;;;;;;35.63;19.70;;;-0.70;1.00;;;;;;5041533;28;20045;-80
2024/01/10 08:00:04;;;;;;;32.38;19.08;;;-0.50;1.00;;;;;;5031017;28;20389;-82
2024/01/10 08:02:33;;;;;;;36.60;19.92;;;-0.70;1.00;;;;;;5052082;28;20111;-84
2024/01/10 08:05:00;;;;;;;34.92;19.08;;;-0.60;1.00;;;;;;5033679;28;20132;-85
2024/01/10 08:07:26;;;;;;;33.83;19.85;;;-0.70;1.00;;;;;;5031224;28;20049;-84
2024/01/10 08:09:52;;;;;;;31.70;18.17;;;-0.60;1.00;;;;;;5032407;28;20048;-82
2024/01/10 08:12:18;;;;;;;31.15;17.67;;;-0.50;1.00;;;;;;5032772;28;20049;-83
2024/01/10 08:14:49;;;;;;;29.75;17.50;;;0.20;1.00;;;;;;5048859;28;20536;-84
2024/01/10 08:17:30;;;;;;;32.60;18.60;;;0.20;1.00;;;;;;5045864;28;20048;-84
2024/01/10 08:19:56;;;;;;;36.10;20.88;;;-0.60;1.00;;;;;;5032794;28;20051;-84
2024/01/10 08:22:22;;;;;;;33.35;18.80;;;-0.40;1.00;;;;;;5065762;28;20135;-84
2024/01/10 08:24:48;;;;;;;33.83;19.95;;;-0.50;1.00;;;;;;5048737;28;20041;-81
2024/01/10 08:27:16;;;;;;;30.58;17.40;;;-0.30;99.90;;;;;;5030991;28;20095;-82
2024/01/10 08:29:42;;;;;;;30.42;17.38;;;-0.50;99.90;;;;;;5030737;28;20036;-83
2024/01/10 08:32:08;;;;;;;31.65;17.73;;;1.30;99.90;;;;;;5017703;28;20105;-81
2024/01/10 08:34:34;;;;;;;29.30;17.10;;;-0.30;99.90;;;;;;5032932;28;20075;-81
2024/01/10 08:37:00;;;;;;;24.85;17.92;;;-0.40;99.90;;;;;;5031644;28;20043;-79
2024/01/10 08:39:28;;;;;;;31.00;20.00;;;0.20;99.90;;;;;;5016318;28;20076;-83
2024/01/10 08:41:54;;;;;;;29.77;19.65;;;1.90;1.00;;;;;;5044804;28;20052;-82
2024/01/10 08:44:19;;;;;;;28.45;19.27;;;1.80;99.90;;;;;;5021857;28;20403;-83
2024/01/10 08:46:46;;;;;;;28.23;18.33;;;0.30;99.90;;;;;;5056896;28;20056;-83
2024/01/10 08:49:14;;;;;;;26.20;18.58;;;0.20;99.90;;;;;;5010896;28;20052;-86
2024/01/10 08:51:40;;;;;;;29.40;19.55;;;2.00;99.90;;;;;;4998050;28;20508;-84
2024/01/10 08:54:12;;;;;;;28.73;19.33;;;2.00;22.00;;;;;;5006291;28;20034;-84
2024/01/10 08:56:38;;;;;;;27.48;18.30;;;0.30;1.00;;;;;;5012737;28;20052;-80
2024/01/10 08:59:03;;;;;;;28.17;18.85;;;0.30;1.00;;;;;;5046015;28;20045;-80
2024/01/10 09:01:29;;;;;;;26.45;17.30;;;0.30;1.00;;;;;;5064085;28;20041;-81
2024/01/10 09:03:55;;;;;;;23.00;14.65;;;0.20;1.00;;;;;;5029878;28;20496;-79
2024/01/10 09:06:21;;;;;;;21.98;13.85;;;0.30;99.90;;;;;;5009743;28;20064;-79
2024/01/10 09:08:46;;;;;;;21.85;14.00;;;0.20;99.90;;;;;;5013515;28;20094;-79
2024/01/10 09:11:12;;;;;;;21.15;13.80;;;1.00;1.40;;;;;;5011695;28;20072;-79
2024/01/10 09:13:39;;;;;;;23.80;14.50;;;1.30;99.90;;;;;;5017934;28;20043;-80
2024/01/10 09:16:05;;;;;;;24.15;15.10;;;0.90;99.90;;;;;;5034047;28;20045;-80
2024/01/10 09:18:31;;;;;;;22.98;13.82;;;0.60;99.90;;;;;;5034032;28;20066;-79
2024/01/10 09:20:57;;;;;;;19.90;13.13;;;0.40;99.90;;;;;;5015998;28;20123;-79
2024/01/10 09:23:23;;;;;;;21.92;12.90;;;0.60;99.90;;;;;;5033750;28;20079;-79
2024/01/10 09:25:48;;;;;;;20.40;13.25;;;0.70;99.90;;;;;;5013842;28;20509;-79
2024/01/10 09:28:14;;;;;;;21.88;13.55;;;0.80;99.90;;;;;;5037909;28;20060;-78
2024/01/10 09:30:40;;;;;;;22.42;13.55;;;1.10;99.90;;;;;;5031100;28;20351;-78
2024/01/10 09:33:06;;;;;;;22.73;13.68;;;1.50;99.90;;;;;;5013672;28;20048;-78
2024/01/10 09:35:31;;;;;;;23.10;14.15;;;2.00;99.90;;;;;;5016925;28;20477;-78
2024/01/10 09:37:57;;;;;;;21.10;13.60;;;2.30;99.90;;;;;;5033540;28;20049;-78
2024/01/10 09:40:27;;;;;;;22.77;13.82;;;3.00;99.90;;;;;;5050442;28;20044;-78
2024/01/10 09:42:54;;;;;;;20.70;13.20;;;3.30;99.90;;;;;;5031099;28;20164;-78
2024/01/10 09:45:21;;;;;;;20.05;13.68;;;3.00;1.00;;;;;;5038506;28;20040;-78
2024/01/10 09:47:53;;;;;;;19.70;12.75;;;3.70;99.90;;;;;;5050168;28;20033;-77
2024/01/10 09:50:19;;;;;;;20.85;13.80;;;3.60;46.60;;;;;;5050312;28;20048;-78
2024/01/10 09:52:52;;;;;;;20.58;14.10;;;4.60;99.90;;;;;;5033295;28;20067;-78
2024/01/10 09:55:23;;;;;;;24.10;14.93;;;3.90;1.00;;;;;;5031556;28;20052;-77
2024/01/10 09:57:49;;;;;;;19.85;13.68;;;4.00;1.00;;;;;;5068117;28;20033;-79
2024/01/10 10:00:16;;;;;;;21.63;15.10;;;4.10;99.90;;;;;;5030829;28;20067;-78
2024/01/10 10:02:42;;;;;;;21.52;13.98;;;4.20;95.40;;;;;;5049511;28;20044;-77
2024/01/10 10:05:16;;;;;;;22.30;14.65;;;4.20;1.00;;;;;;5032150;28;20031;-76
2024/01/10 10:07:45;;;;;;;21.67;15.38;;;4.10;1.00;;;;;;5047104;28;20082;-77
2024/01/10 10:10:12;;;;;;;19.15;13.68;;;4.20;99.90;;;;;;5054527;28;20037;-76
2024/01/10 10:12:48;;;;;;;20.40;14.93;;;4.20;1.00;;;;;;5016951;28;20045;-75
2024/01/10 10:15:16;;;;;;;20.55;14.60;;;4.10;1.00;;;;;;5045903;28;20446;-76
2024/01/10 10:17:47;;;;;;;22.13;14.88;;;4.40;1.00;;;;;;5032406;28;20041;-77
2024/01/10 10:20:32;;;;;;;21.80;15.02;;;4.40;1.00;;;;;;5015801;28;20048;-75
2024/01/10 10:23:01;;;;;;;28.58;22.38;;;4.20;1.00;;;;;;5032634;28;20033;-75
2024/01/10 10:25:29;;;;;;;23.70;16.75;;;3.80;1.00;;;;;;5049653;28;20103;-75
2024/01/10 10:27:55;;;;;;;23.45;16.23;;;4.40;1.00;;;;;;5029879;28;20044;-75
2024/01/10 10:30:20;;;;;;;20.08;14.38;;;4.70;1.00;;;;;;5049378;28;20039;-75
2024/01/10 10:32:47;;;;;;;19.73;13.20;;;4.40;1.00;;;;;;5033024;28;20048;-76
2024/01/10 10:35:13;;;;;;;17.83;13.05;;;4.40;1.00;;;;;;5031983;28;20041;-78
2024/01/10 10:37:39;;;;;;;19.25;14.32;;;5.00;99.90;;;;;;5030779;28;20045;-77
2024/01/10 10:40:08;;;;;;;19.85;13.23;;;5.20;1.00;;;;;;5059222;28;20390;-76
2024/01/10 10:42:35;;;;;;;19.10;13.77;;;4.40;1.00;;;;;;5060170;28;20072;-76
2024/01/10 10:45:04;;;;;;;17.75;13.38;;;5.30;27.40;;;;;;5015477;28;20620;-78
2024/01/10 10:47:35;;;;;;;18.42;12.68;;;4.50;99.90;;;;;;5031784;28;20098;-76
2024/01/10 10:50:03;;;;;;;17.33;12.73;;;4.50;1.00;;;;;;5030915;28;20056;-76
2024/01/10 10:52:31;;;;;;;16.20;12.57;;;4.80;99.60;;;;;;5047398;28;20047;-77
2024/01/10 10:54:59;;;;;;;16.27;12.48;;;4.80;91.30;;;;;;5080693;28;20958;-76
2024/01/10 10:57:27;;;;;;;17.63;12.93;;;5.10;99.90;;;;;;5031041;28;20041;-77
2024/01/10 10:59:53;;;;;;;16.35;12.88;;;4.70;99.90;;;;;;5052288;28;20033;-77
2024/01/10 11:02:24;;;;;;;16.27;12.60;;;5.30;99.90;;;;;;5028520;28;20371;-78
2024/01/10 11:04:51;;;;;;;15.63;12.70;;;5.30;99.90;;;;;;5048503;28;20037;-78
2024/01/10 11:07:18;;;;;;;16.45;12.43;;;5.30;99.90;;;;;;5046645;28;20056;-77
2024/01/10 11:09:47;;;;;;;13.75;11.32;;;5.40;99.90;;;;;;5064618;28;20069;-78
2024/01/10 11:12:38;;;;;;;17.58;13.00;;;5.50;99.90;;;;;;5048678;28;20045;-78
2024/01/10 11:15:24;;;;;;;15.13;12.07;;;5.60;99.90;;;;;;5031748;28;20059;-77
2024/01/10 11:18:11;;;;;;;16.13;12.45;;;5.70;99.90;;;;;;5031861;28;20102;-77
2024/01/10 11:21:20;;;;;;;16.15;12.63;;;5.70;99.90;;;;;;5064026;28;20588;-75
2024/01/10 11:23:56;;;;;;;17.38;13.43;;;5.20;99.90;;;;;;5048642;28;20040;-76
2024/01/10 11:26:22;;;;;;;17.85;13.07;;;5.60;99.90;;;;;;5031849;28;20113;-77
2024/01/10 11:28:48;;;;;;;14.88;12.32;;;5.50;99.90;;;;;;5012569;28;20399;-77
2024/01/10 11:31:15;;;;;;;17.30;12.50;;;5.70;99.90;;;;;;5045117;28;20064;-77
2024/01/10 11:33:43;;;;;;;16.40;13.02;;;5.60;99.90;;;;;;5033923;28;20044;-78
2024/01/10 11:36:24;;;;;;;16.88;12.70;;;5.80;99.90;;;;;;5041575;28;20037;-77
2024/01/10 11:38:53;;;;;;;17.42;12.98;;;5.70;99.90;;;;;;5015965;28;20421;-78
2024/01/10 11:41:30;;;;;;;16.35;12.50;;;5.30;99.90;;;;;;5028306;28;20099;-78
2024/01/10 11:44:11;;;;;;;16.27;13.50;;;4.80;99.90;;;;;;5031505;28;20572;-80
2024/01/10 11:46:47;;;;;;;16.13;12.60;;;4.50;99.90;;;;;;5031663;28;20047;-74
2024/01/10 11:49:15;;;;;;;18.30;13.15;;;4.40;99.90;;;;;;5030949;28;20044;-83
2024/01/10 11:51:56;;;;;;;17.42;12.85;;;4.40;99.90;;;;;;5028778;28;20044;-80
2024/01/10 11:54:41;;;;;;;18.60;13.02;;;4.30;99.90;;;;;;5055821;28;20409;-83
2024/01/10 11:57:25;;;;;;;19.83;13.15;;;4.60;99.90;;;;;;5044174;28;20048;-81
2024/01/10 11:59:52;;;;;;;16.77;13.10;;;4.70;99.90;;;;;;5031791;28;20053;-83
2024/01/10 12:02:19;;;;;;;15.75;12.35;;;4.40;99.90;;;;;;5015750;28;20037;-82
2024/01/10 12:04:45;;;;;;;17.33;13.68;;;5.20;99.90;;;;;;5030061;28;20355;-81
2024/01/10 12:07:16;;;;;;;16.83;13.57;;;4.60;99.90;;;;;;5044638;28;20787;-83
2024/01/10 12:09:42;;;;;;;18.08;14.65;;;4.40;99.90;;;;;;5059535;28;20508;-82
2024/01/10 12:12:08;;;;;;;18.70;13.07;;;4.70;99.90;;;;;;5061767;28;20079;-83
2024/01/10 12:14:35;;;;;;;18.33;13.13;;;4.20;99.90;;;;;;5018843;28;20052;-81
2024/01/10 12:17:01;;;;;;;17.77;14.30;;;4.20;99.90;;;;;;5045479;28;20152;-83
2024/01/10 12:19:28;;;;;;;18.20;13.32;;;4.60;99.90;;;;;;5041599;28;20516;-82
2024/01/10 12:21:53;;;;;;;21.05;13.00;;;4.40;99.90;;;;;;5007018;28;20104;-82
2024/01/10 12:24:21;;;;;;;19.45;14.00;;;4.30;99.90;;;;;;5026189;28;20457;-81
2024/01/10 12:26:47;;;;;;;20.90;13.70;;;3.60;99.90;;;;;;5053839;28;20120;-81
2024/01/10 12:29:16;;;;;;;21.10;13.57;;;3.70;99.90;;;;;;5062396;28;20040;-82
2024/01/10 12:31:45;;;;;;;22.77;13.50;;;3.60;99.90;;;;;;5023866;28;20041;-81
2024/01/10 12:34:11;;;;;;;19.10;13.00;;;3.50;99.90;;;;;;5040511;28;20060;-82
2024/01/10 12:36:37;;;;;;;19.88;13.65;;;3.40;99.90;;;;;;5028644;28;20172;-83